sensor_id;sensor_type;location;lat;lon;timestamp;P1;durP1;ratioP1;P2;durP2;ratioP2
19161;SDS011;9713;48.140;11.530;2023-04-15T00:02:48;5.50;;;2.50;;
19161;SDS011;9713;48.140;11.530;2023-04-15T00:06:31;8.97;;;2.43;;
19161;SDS011;9713;48.140;11.530;2023-04-15T00:10:14;5.90;;;2.90;;
19161;SDS011;9713;48.140;11.530;2023-04-15T00:13:58;5.73;;;3.20;;
19161;SDS011;9713;48.140;11.530;2023-04-15T00:17:41;5.80;;;3.17;;
19161;SDS011;9713;48.140;11.530;2023-04-15T00:21:23;7.00;;;3.40;;
19161;SDS011;9713;48.140;11.530;2023-04-15T00:25:08;5.40;;;3.07;;
19161;SDS011;9713;48.140;11.530;2023-04-15T00:28:50;6.10;;;2.87;;
19161;SDS011;9713;48.140;11.530;2023-04-15T00:32:34;5.07;;;2.47;;
19161;SDS011;9713;48.140;11.530;2023-04-15T00:36:17;8.00;;;2.83;;
19161;SDS011;9713;48.140;11.530;2023-04-15T00:39:59;8.33;;;3.30;;
19161;SDS011;9713;48.140;11.530;2023-04-15T00:43:45;6.00;;;2.90;;
19161;SDS011;9713;48.140;11.530;2023-04-15T00:47:28;7.83;;;3.40;;
19161;SDS011;9713;48.140;11.530;2023-04-15T00:51:15;7.17;;;3.53;;
19161;SDS011;9713;48.140;11.530;2023-04-15T00:54:58;5.17;;;2.90;;
19161;SDS011;9713;48.140;11.530;2023-04-15T00:58:41;7.37;;;2.80;;
19161;SDS011;9713;48.140;11.530;2023-04-15T01:02:24;4.47;;;3.10;;
19161;SDS011;9713;48.140;11.530;2023-04-15T01:06:07;7.97;;;2.90;;
19161;SDS011;9713;48.140;11.530;2023-04-15T01:09:51;7.20;;;3.30;;
19161;SDS011;9713;48.140;11.530;2023-04-15T01:13:34;5.53;;;3.17;;
19161;SDS011;9713;48.140;11.530;2023-04-15T01:17:17;8.23;;;3.57;;
19161;SDS011;9713;48.140;11.530;2023-04-15T01:21:01;6.10;;;3.27;;
19161;SDS011;9713;48.140;11.530;2023-04-15T01:24:48;5.83;;;3.17;;
19161;SDS011;9713;48.140;11.530;2023-04-15T01:28:38;6.00;;;3.67;;
19161;SDS011;9713;48.140;11.530;2023-04-15T01:32:21;6.27;;;3.73;;
19161;SDS011;9713;48.140;11.530;2023-04-15T01:36:04;5.80;;;3.07;;
19161;SDS011;9713;48.140;11.530;2023-04-15T01:39:48;7.37;;;3.23;;
19161;SDS011;9713;48.140;11.530;2023-04-15T01:43:31;7.10;;;3.20;;
19161;SDS011;9713;48.140;11.530;2023-04-15T01:47:15;6.83;;;3.70;;
19161;SDS011;9713;48.140;11.530;2023-04-15T01:50:58;9.07;;;3.40;;
19161;SDS011;9713;48.140;11.530;2023-04-15T01:54:41;5.83;;;3.27;;
19161;SDS011;9713;48.140;11.530;2023-04-15T01:58:24;6.13;;;3.40;;
19161;SDS011;9713;48.140;11.530;2023-04-15T02:02:07;7.53;;;3.10;;
19161;SDS011;9713;48.140;11.530;2023-04-15T02:05:52;8.93;;;3.40;;
19161;SDS011;9713;48.140;11.530;2023-04-15T02:09:34;7.93;;;3.10;;
19161;SDS011;9713;48.140;11.530;2023-04-15T02:13:19;7.97;;;3.90;;
19161;SDS011;9713;48.140;11.530;2023-04-15T02:17:02;9.37;;;3.30;;
19161;SDS011;9713;48.140;11.530;2023-04-15T02:20:47;5.07;;;3.07;;
19161;SDS011;9713;48.140;11.530;2023-04-15T02:24:33;7.33;;;3.57;;
19161;SDS011;9713;48.140;11.530;2023-04-15T02:28:16;6.67;;;3.57;;
19161;SDS011;9713;48.140;11.530;2023-04-15T02:31:58;8.90;;;3.47;;
19161;SDS011;9713;48.140;11.530;2023-04-15T02:35:41;6.03;;;2.90;;
19161;SDS011;9713;48.140;11.530;2023-04-15T02:39:25;5.83;;;3.07;;
19161;SDS011;9713;48.140;11.530;2023-04-15T02:43:09;7.00;;;3.40;;
19161;SDS011;9713;48.140;11.530;2023-04-15T02:46:52;6.97;;;3.10;;
19161;SDS011;9713;48.140;11.530;2023-04-15T02:50:35;7.17;;;3.00;;
19161;SDS011;9713;48.140;11.530;2023-04-15T02:54:20;6.33;;;3.23;;
19161;SDS011;9713;48.140;11.530;2023-04-15T02:58:03;6.47;;;3.50;;
19161;SDS011;9713;48.140;11.530;2023-04-15T03:01:48;6.33;;;2.83;;
19161;SDS011;9713;48.140;11.530;2023-04-15T03:05:30;9.27;;;3.40;;
19161;SDS011;9713;48.140;11.530;2023-04-15T03:09:13;9.93;;;3.40;;
19161;SDS011;9713;48.140;11.530;2023-04-15T03:12:56;6.53;;;3.03;;
19161;SDS011;9713;48.140;11.530;2023-04-15T03:16:38;5.00;;;3.03;;
19161;SDS011;9713;48.140;11.530;2023-04-15T03:20:22;4.30;;;2.83;;
19161;SDS011;9713;48.140;11.530;2023-04-15T03:24:05;5.30;;;3.00;;
19161;SDS011;9713;48.140;11.530;2023-04-15T03:27:48;5.23;;;3.13;;
19161;SDS011;9713;48.140;11.530;2023-04-15T03:31:31;7.00;;;3.10;;
19161;SDS011;9713;48.140;11.530;2023-04-15T03:35:14;5.40;;;2.90;;
19161;SDS011;9713;48.140;11.530;2023-04-15T03:38:58;9.70;;;3.00;;
19161;SDS011;9713;48.140;11.530;2023-04-15T03:42:42;8.23;;;2.97;;
19161;SDS011;9713;48.140;11.530;2023-04-15T03:46:25;5.83;;;2.53;;
19161;SDS011;9713;48.140;11.530;2023-04-15T03:50:08;7.10;;;2.67;;
19161;SDS011;9713;48.140;11.530;2023-04-15T03:53:51;9.27;;;2.90;;
19161;SDS011;9713;48.140;11.530;2023-04-15T03:57:35;8.73;;;2.80;;
19161;SDS011;9713;48.140;11.530;2023-04-15T04:01:19;4.97;;;2.70;;
19161;SDS011;9713;48.140;11.530;2023-04-15T04:05:02;5.57;;;2.77;;
19161;SDS011;9713;48.140;11.530;2023-04-15T04:08:45;5.80;;;2.73;;
19161;SDS011;9713;48.140;11.530;2023-04-15T04:12:27;5.63;;;2.57;;
19161;SDS011;9713;48.140;11.530;2023-04-15T04:16:12;4.90;;;2.60;;
19161;SDS011;9713;48.140;11.530;2023-04-15T04:19:54;4.93;;;2.20;;
19161;SDS011;9713;48.140;11.530;2023-04-15T04:23:37;8.03;;;2.60;;
19161;SDS011;9713;48.140;11.530;2023-04-15T04:27:20;5.50;;;2.40;;
19161;SDS011;9713;48.140;11.530;2023-04-15T04:31:03;7.03;;;2.50;;
19161;SDS011;9713;48.140;11.530;2023-04-15T04:34:47;6.13;;;2.73;;
19161;SDS011;9713;48.140;11.530;2023-04-15T04:38:29;6.30;;;2.60;;
19161;SDS011;9713;48.140;11.530;2023-04-15T04:42:12;5.47;;;2.50;;
19161;SDS011;9713;48.140;11.530;2023-04-15T04:45:55;7.60;;;2.50;;
19161;SDS011;9713;48.140;11.530;2023-04-15T04:49:37;4.40;;;2.40;;
19161;SDS011;9713;48.140;11.530;2023-04-15T04:53:22;7.33;;;2.40;;
19161;SDS011;9713;48.140;11.530;2023-04-15T04:57:05;9.07;;;2.77;;
19161;SDS011;9713;48.140;11.530;2023-04-15T05:00:48;5.37;;;2.60;;
19161;SDS011;9713;48.140;11.530;2023-04-15T05:04:32;7.23;;;2.50;;
19161;SDS011;9713;48.140;11.530;2023-04-15T05:08:15;6.37;;;2.63;;
19161;SDS011;9713;48.140;11.530;2023-04-15T05:11:59;5.80;;;2.30;;
19161;SDS011;9713;48.140;11.530;2023-04-15T05:15:41;5.40;;;2.30;;
19161;SDS011;9713;48.140;11.530;2023-04-15T05:19:25;5.70;;;2.20;;
19161;SDS011;9713;48.140;11.530;2023-04-15T05:23:07;5.57;;;2.20;;
19161;SDS011;9713;48.140;11.530;2023-04-15T05:26:50;7.97;;;2.30;;
19161;SDS011;9713;48.140;11.530;2023-04-15T05:30:34;5.37;;;2.47;;
19161;SDS011;9713;48.140;11.530;2023-04-15T05:34:17;5.27;;;2.00;;
19161;SDS011;9713;48.140;11.530;2023-04-15T05:37:59;6.30;;;2.13;;
19161;SDS011;9713;48.140;11.530;2023-04-15T05:41:42;2.70;;;1.97;;
19161;SDS011;9713;48.140;11.530;2023-04-15T05:45:25;5.00;;;1.87;;
19161;SDS011;9713;48.140;11.530;2023-04-15T05:49:09;4.33;;;1.70;;
19161;SDS011;9713;48.140;11.530;2023-04-15T05:52:52;5.63;;;1.87;;
19161;SDS011;9713;48.140;11.530;2023-04-15T05:56:34;3.17;;;1.73;;
19161;SDS011;9713;48.140;11.530;2023-04-15T06:00:17;4.43;;;2.00;;
19161;SDS011;9713;48.140;11.530;2023-04-15T06:04:01;5.90;;;1.90;;
19161;SDS011;9713;48.140;11.530;2023-04-15T06:07:45;4.50;;;1.90;;
19161;SDS011;9713;48.140;11.530;2023-04-15T06:11:29;5.57;;;2.00;;
19161;SDS011;9713;48.140;11.530;2023-04-15T06:15:11;4.80;;;1.80;;
19161;SDS011;9713;48.140;11.530;2023-04-15T06:18:54;5.07;;;1.80;;
19161;SDS011;9713;48.140;11.530;2023-04-15T06:22:37;4.80;;;1.80;;
19161;SDS011;9713;48.140;11.530;2023-04-15T06:26:21;4.47;;;1.90;;
19161;SDS011;9713;48.140;11.530;2023-04-15T06:30:04;6.90;;;1.90;;
19161;SDS011;9713;48.140;11.530;2023-04-15T06:33:48;3.07;;;2.00;;
19161;SDS011;9713;48.140;11.530;2023-04-15T06:37:30;5.90;;;1.80;;
19161;SDS011;9713;48.140;11.530;2023-04-15T06:41:13;7.33;;;1.67;;
19161;SDS011;9713;48.140;11.530;2023-04-15T06:44:57;4.07;;;1.70;;
19161;SDS011;9713;48.140;11.530;2023-04-15T06:48:40;2.60;;;1.50;;
19161;SDS011;9713;48.140;11.530;2023-04-15T06:52:23;4.03;;;1.60;;
19161;SDS011;9713;48.140;11.530;2023-04-15T06:56:06;5.87;;;1.80;;
19161;SDS011;9713;48.140;11.530;2023-04-15T06:59:49;5.37;;;1.60;;
19161;SDS011;9713;48.140;11.530;2023-04-15T07:03:36;3.53;;;1.60;;
19161;SDS011;9713;48.140;11.530;2023-04-15T07:07:19;2.80;;;1.30;;
19161;SDS011;9713;48.140;11.530;2023-04-15T07:11:01;4.50;;;1.97;;
19161;SDS011;9713;48.140;11.530;2023-04-15T07:14:44;2.97;;;1.80;;
19161;SDS011;9713;48.140;11.530;2023-04-15T07:18:27;4.63;;;1.87;;
19161;SDS011;9713;48.140;11.530;2023-04-15T07:22:11;3.10;;;1.47;;
19161;SDS011;9713;48.140;11.530;2023-04-15T07:25:54;3.93;;;1.63;;
19161;SDS011;9713;48.140;11.530;2023-04-15T07:29:37;4.73;;;1.60;;
19161;SDS011;9713;48.140;11.530;2023-04-15T07:33:19;5.07;;;2.13;;
19161;SDS011;9713;48.140;11.530;2023-04-15T07:37:02;4.60;;;1.60;;
19161;SDS011;9713;48.140;11.530;2023-04-15T07:40:46;2.90;;;1.67;;
19161;SDS011;9713;48.140;11.530;2023-04-15T07:44:29;2.83;;;1.50;;
19161;SDS011;9713;48.140;11.530;2023-04-15T07:48:12;4.17;;;1.60;;
19161;SDS011;9713;48.140;11.530;2023-04-15T07:51:55;3.53;;;1.40;;
19161;SDS011;9713;48.140;11.530;2023-04-15T07:55:37;4.97;;;1.50;;
19161;SDS011;9713;48.140;11.530;2023-04-15T07:59:22;5.40;;;1.60;;
19161;SDS011;9713;48.140;11.530;2023-04-15T08:03:04;4.20;;;1.80;;
19161;SDS011;9713;48.140;11.530;2023-04-15T08:06:48;5.47;;;1.90;;
19161;SDS011;9713;48.140;11.530;2023-04-15T08:10:30;2.50;;;1.40;;
19161;SDS011;9713;48.140;11.530;2023-04-15T08:14:13;3.53;;;1.83;;
19161;SDS011;9713;48.140;11.530;2023-04-15T08:17:57;3.07;;;1.80;;
19161;SDS011;9713;48.140;11.530;2023-04-15T08:21:40;4.90;;;1.80;;
19161;SDS011;9713;48.140;11.530;2023-04-15T08:25:23;5.77;;;1.77;;
19161;SDS011;9713;48.140;11.530;2023-04-15T08:29:06;3.43;;;1.50;;
19161;SDS011;9713;48.140;11.530;2023-04-15T08:32:49;4.83;;;1.70;;
19161;SDS011;9713;48.140;11.530;2023-04-15T08:36:33;4.57;;;2.03;;
19161;SDS011;9713;48.140;11.530;2023-04-15T08:40:16;4.67;;;1.73;;
19161;SDS011;9713;48.140;11.530;2023-04-15T08:44:00;5.97;;;2.10;;
19161;SDS011;9713;48.140;11.530;2023-04-15T08:47:45;4.10;;;1.40;;
19161;SDS011;9713;48.140;11.530;2023-04-15T08:51:30;3.50;;;1.77;;
19161;SDS011;9713;48.140;11.530;2023-04-15T08:55:15;4.73;;;1.93;;
19161;SDS011;9713;48.140;11.530;2023-04-15T08:58:58;5.80;;;2.00;;
19161;SDS011;9713;48.140;11.530;2023-04-15T09:02:41;5.70;;;2.20;;
19161;SDS011;9713;48.140;11.530;2023-04-15T09:06:24;6.00;;;2.27;;
19161;SDS011;9713;48.140;11.530;2023-04-15T09:10:08;4.70;;;2.50;;
19161;SDS011;9713;48.140;11.530;2023-04-15T09:13:53;6.17;;;2.40;;
19161;SDS011;9713;48.140;11.530;2023-04-15T09:17:36;5.47;;;2.10;;
19161;SDS011;9713;48.140;11.530;2023-04-15T09:21:23;4.80;;;2.40;;
19161;SDS011;9713;48.140;11.530;2023-04-15T09:29:09;4.20;;;2.30;;
19161;SDS011;9713;48.140;11.530;2023-04-15T09:32:54;6.50;;;2.87;;
19161;SDS011;9713;48.140;11.530;2023-04-15T09:36:50;5.10;;;2.53;;
19161;SDS011;9713;48.140;11.530;2023-04-15T09:40:34;3.87;;;2.67;;
19161;SDS011;9713;48.140;11.530;2023-04-15T09:44:22;4.97;;;2.50;;
19161;SDS011;9713;48.140;11.530;2023-04-15T09:48:15;7.83;;;4.23;;
19161;SDS011;9713;48.140;11.530;2023-04-15T09:52:01;6.00;;;3.20;;
19161;SDS011;9713;48.140;11.530;2023-04-15T09:55:48;7.13;;;3.63;;
19161;SDS011;9713;48.140;11.530;2023-04-15T09:59:33;10.57;;;3.80;;
19161;SDS011;9713;48.140;11.530;2023-04-15T10:03:17;10.03;;;4.30;;
19161;SDS011;9713;48.140;11.530;2023-04-15T10:07:02;7.13;;;3.57;;
19161;SDS011;9713;48.140;11.530;2023-04-15T10:10:45;4.83;;;2.97;;
19161;SDS011;9713;48.140;11.530;2023-04-15T10:14:28;4.53;;;3.07;;
19161;SDS011;9713;48.140;11.530;2023-04-15T10:18:16;8.23;;;4.00;;
19161;SDS011;9713;48.140;11.530;2023-04-15T10:22:01;5.77;;;3.43;;
19161;SDS011;9713;48.140;11.530;2023-04-15T10:25:44;7.40;;;3.50;;
19161;SDS011;9713;48.140;11.530;2023-04-15T10:29:27;8.07;;;4.10;;
19161;SDS011;9713;48.140;11.530;2023-04-15T10:33:11;11.57;;;4.57;;
19161;SDS011;9713;48.140;11.530;2023-04-15T10:36:54;7.07;;;4.00;;
19161;SDS011;9713;48.140;11.530;2023-04-15T10:40:38;6.30;;;4.10;;
19161;SDS011;9713;48.140;11.530;2023-04-15T10:44:21;8.47;;;4.97;;
19161;SDS011;9713;48.140;11.530;2023-04-15T10:48:05;6.30;;;3.93;;
19161;SDS011;9713;48.140;11.530;2023-04-15T10:51:51;7.37;;;4.37;;
19161;SDS011;9713;48.140;11.530;2023-04-15T10:55:34;8.53;;;4.03;;
19161;SDS011;9713;48.140;11.530;2023-04-15T10:59:17;6.33;;;3.80;;
19161;SDS011;9713;48.140;11.530;2023-04-15T11:03:04;8.33;;;4.00;;
19161;SDS011;9713;48.140;11.530;2023-04-15T11:06:50;5.70;;;3.70;;
19161;SDS011;9713;48.140;11.530;2023-04-15T11:10:51;7.57;;;3.90;;
19161;SDS011;9713;48.140;11.530;2023-04-15T11:14:38;8.23;;;4.20;;
19161;SDS011;9713;48.140;11.530;2023-04-15T11:18:22;7.50;;;4.13;;
19161;SDS011;9713;48.140;11.530;2023-04-15T11:22:07;7.83;;;4.67;;
19161;SDS011;9713;48.140;11.530;2023-04-15T11:25:50;6.70;;;4.20;;
19161;SDS011;9713;48.140;11.530;2023-04-15T11:29:33;10.47;;;4.50;;
19161;SDS011;9713;48.140;11.530;2023-04-15T11:33:16;11.30;;;4.77;;
19161;SDS011;9713;48.140;11.530;2023-04-15T11:36:59;10.33;;;4.33;;
19161;SDS011;9713;48.140;11.530;2023-04-15T11:40:45;6.60;;;4.10;;
19161;SDS011;9713;48.140;11.530;2023-04-15T11:44:27;6.93;;;4.07;;
19161;SDS011;9713;48.140;11.530;2023-04-15T11:48:13;7.20;;;4.40;;
19161;SDS011;9713;48.140;11.530;2023-04-15T11:51:56;8.60;;;4.33;;
19161;SDS011;9713;48.140;11.530;2023-04-15T11:55:42;9.20;;;4.60;;
19161;SDS011;9713;48.140;11.530;2023-04-15T11:59:27;9.67;;;4.40;;
19161;SDS011;9713;48.140;11.530;2023-04-15T12:03:27;7.87;;;4.50;;
19161;SDS011;9713;48.140;11.530;2023-04-15T12:07:11;7.87;;;4.17;;
19161;SDS011;9713;48.140;11.530;2023-04-15T12:10:59;7.80;;;4.33;;
19161;SDS011;9713;48.140;11.530;2023-04-15T12:14:41;8.57;;;4.37;;
19161;SDS011;9713;48.140;11.530;2023-04-15T12:18:24;8.10;;;4.50;;
19161;SDS011;9713;48.140;11.530;2023-04-15T12:22:08;8.20;;;4.50;;
19161;SDS011;9713;48.140;11.530;2023-04-15T12:25:51;12.17;;;4.30;;
19161;SDS011;9713;48.140;11.530;2023-04-15T12:29:36;8.97;;;4.70;;
19161;SDS011;9713;48.140;11.530;2023-04-15T12:33:20;6.93;;;4.50;;
19161;SDS011;9713;48.140;11.530;2023-04-15T12:37:05;7.93;;;4.70;;
19161;SDS011;9713;48.140;11.530;2023-04-15T12:40:49;8.00;;;4.07;;
19161;SDS011;9713;48.140;11.530;2023-04-15T12:44:32;8.27;;;4.27;;
19161;SDS011;9713;48.140;11.530;2023-04-15T12:48:18;10.93;;;4.30;;
19161;SDS011;9713;48.140;11.530;2023-04-15T12:52:01;7.40;;;3.53;;
19161;SDS011;9713;48.140;11.530;2023-04-15T12:55:44;5.53;;;3.10;;
19161;SDS011;9713;48.140;11.530;2023-04-15T12:59:27;6.50;;;3.10;;
19161;SDS011;9713;48.140;11.530;2023-04-15T13:03:10;5.63;;;2.70;;
19161;SDS011;9713;48.140;11.530;2023-04-15T13:06:54;6.20;;;2.70;;
19161;SDS011;9713;48.140;11.530;2023-04-15T13:10:37;7.07;;;2.60;;
19161;SDS011;9713;48.140;11.530;2023-04-15T13:14:19;4.87;;;3.00;;
19161;SDS011;9713;48.140;11.530;2023-04-15T13:18:05;6.83;;;2.57;;
19161;SDS011;9713;48.140;11.530;2023-04-15T13:21:48;4.47;;;2.80;;
19161;SDS011;9713;48.140;11.530;2023-04-15T13:25:32;8.83;;;3.40;;
19161;SDS011;9713;48.140;11.530;2023-04-15T13:29:15;11.70;;;3.60;;
19161;SDS011;9713;48.140;11.530;2023-04-15T13:32:57;8.60;;;3.30;;
19161;SDS011;9713;48.140;11.530;2023-04-15T13:36:40;7.37;;;3.30;;
19161;SDS011;9713;48.140;11.530;2023-04-15T13:40:23;42.07;;;13.33;;
19161;SDS011;9713;48.140;11.530;2023-04-15T13:44:07;12.83;;;4.13;;
19161;SDS011;9713;48.140;11.530;2023-04-15T13:47:54;6.50;;;3.60;;
19161;SDS011;9713;48.140;11.530;2023-04-15T13:51:37;5.63;;;3.90;;
19161;SDS011;9713;48.140;11.530;2023-04-15T13:55:20;7.03;;;3.83;;
19161;SDS011;9713;48.140;11.530;2023-04-15T13:59:07;9.23;;;3.70;;
19161;SDS011;9713;48.140;11.530;2023-04-15T14:02:50;8.33;;;3.70;;
19161;SDS011;9713;48.140;11.530;2023-04-15T14:06:33;5.27;;;3.73;;
19161;SDS011;9713;48.140;11.530;2023-04-15T14:10:16;9.23;;;5.50;;
19161;SDS011;9713;48.140;11.530;2023-04-15T14:13:58;7.77;;;3.40;;
19161;SDS011;9713;48.140;11.530;2023-04-15T14:17:42;5.97;;;3.67;;
19161;SDS011;9713;48.140;11.530;2023-04-15T14:21:25;7.57;;;3.90;;
19161;SDS011;9713;48.140;11.530;2023-04-15T14:25:10;7.83;;;3.30;;
19161;SDS011;9713;48.140;11.530;2023-04-15T14:29:10;6.17;;;3.40;;
19161;SDS011;9713;48.140;11.530;2023-04-15T14:32:54;6.27;;;2.90;;
19161;SDS011;9713;48.140;11.530;2023-04-15T14:36:37;6.37;;;3.00;;
19161;SDS011;9713;48.140;11.530;2023-04-15T14:40:21;6.30;;;2.93;;
19161;SDS011;9713;48.140;11.530;2023-04-15T14:44:04;7.87;;;3.10;;
19161;SDS011;9713;48.140;11.530;2023-04-15T14:47:49;4.50;;;2.80;;
19161;SDS011;9713;48.140;11.530;2023-04-15T14:51:34;6.30;;;3.13;;
19161;SDS011;9713;48.140;11.530;2023-04-15T14:55:17;5.33;;;3.23;;
19161;SDS011;9713;48.140;11.530;2023-04-15T14:59:00;5.10;;;3.00;;
19161;SDS011;9713;48.140;11.530;2023-04-15T15:02:43;5.17;;;3.20;;
19161;SDS011;9713;48.140;11.530;2023-04-15T15:06:27;6.40;;;3.40;;
19161;SDS011;9713;48.140;11.530;2023-04-15T15:10:11;7.83;;;3.70;;
19161;SDS011;9713;48.140;11.530;2023-04-15T15:13:54;5.63;;;3.80;;
19161;SDS011;9713;48.140;11.530;2023-04-15T15:17:37;7.77;;;3.83;;
19161;SDS011;9713;48.140;11.530;2023-04-15T15:21:20;6.47;;;3.90;;
19161;SDS011;9713;48.140;11.530;2023-04-15T15:25:02;4.10;;;3.17;;
19161;SDS011;9713;48.140;11.530;2023-04-15T15:28:47;7.57;;;3.90;;
19161;SDS011;9713;48.140;11.530;2023-04-15T15:32:30;10.37;;;3.83;;
19161;SDS011;9713;48.140;11.530;2023-04-15T15:36:13;7.13;;;4.20;;
19161;SDS011;9713;48.140;11.530;2023-04-15T15:39:56;8.40;;;4.73;;
19161;SDS011;9713;48.140;11.530;2023-04-15T15:43:39;4.50;;;3.70;;
19161;SDS011;9713;48.140;11.530;2023-04-15T15:47:23;9.00;;;4.67;;
19161;SDS011;9713;48.140;11.530;2023-04-15T15:51:06;5.93;;;4.40;;
19161;SDS011;9713;48.140;11.530;2023-04-15T15:54:49;9.53;;;4.63;;
19161;SDS011;9713;48.140;11.530;2023-04-15T15:58:32;6.33;;;4.10;;
19161;SDS011;9713;48.140;11.530;2023-04-15T16:02:14;7.90;;;4.50;;
19161;SDS011;9713;48.140;11.530;2023-04-15T16:05:58;8.43;;;4.50;;
19161;SDS011;9713;48.140;11.530;2023-04-15T16:09:41;6.20;;;4.10;;
19161;SDS011;9713;48.140;11.530;2023-04-15T16:13:24;6.63;;;4.10;;
19161;SDS011;9713;48.140;11.530;2023-04-15T16:17:07;5.77;;;4.10;;
19161;SDS011;9713;48.140;11.530;2023-04-15T16:20:49;5.33;;;3.50;;
19161;SDS011;9713;48.140;11.530;2023-04-15T16:24:33;5.17;;;4.03;;
19161;SDS011;9713;48.140;11.530;2023-04-15T16:28:16;5.97;;;3.53;;
19161;SDS011;9713;48.140;11.530;2023-04-15T16:32:07;6.43;;;4.00;;
19161;SDS011;9713;48.140;11.530;2023-04-15T16:35:50;6.63;;;3.57;;
19161;SDS011;9713;48.140;11.530;2023-04-15T16:39:34;6.50;;;3.73;;
19161;SDS011;9713;48.140;11.530;2023-04-15T16:43:18;4.30;;;3.03;;
19161;SDS011;9713;48.140;11.530;2023-04-15T16:47:01;5.17;;;2.97;;
19161;SDS011;9713;48.140;11.530;2023-04-15T16:50:44;5.23;;;3.07;;
19161;SDS011;9713;48.140;11.530;2023-04-15T16:54:26;4.73;;;2.70;;
19161;SDS011;9713;48.140;11.530;2023-04-15T16:58:11;4.57;;;2.50;;
19161;SDS011;9713;48.140;11.530;2023-04-15T17:01:53;5.53;;;2.97;;
19161;SDS011;9713;48.140;11.530;2023-04-15T17:05:36;6.00;;;2.50;;
19161;SDS011;9713;48.140;11.530;2023-04-15T17:09:19;5.27;;;3.20;;
19161;SDS011;9713;48.140;11.530;2023-04-15T17:13:01;5.93;;;3.23;;
19161;SDS011;9713;48.140;11.530;2023-04-15T17:16:46;6.40;;;3.10;;
19161;SDS011;9713;48.140;11.530;2023-04-15T17:20:28;6.13;;;3.00;;
19161;SDS011;9713;48.140;11.530;2023-04-15T17:24:11;5.43;;;3.20;;
19161;SDS011;9713;48.140;11.530;2023-04-15T17:27:54;6.43;;;3.50;;
19161;SDS011;9713;48.140;11.530;2023-04-15T17:31:36;5.67;;;3.23;;
19161;SDS011;9713;48.140;11.530;2023-04-15T17:35:21;10.57;;;4.20;;
19161;SDS011;9713;48.140;11.530;2023-04-15T17:39:05;8.30;;;3.90;;
19161;SDS011;9713;48.140;11.530;2023-04-15T17:42:52;5.70;;;3.63;;
19161;SDS011;9713;48.140;11.530;2023-04-15T17:46:34;5.27;;;3.30;;
19161;SDS011;9713;48.140;11.530;2023-04-15T17:50:17;7.47;;;3.63;;
19161;SDS011;9713;48.140;11.530;2023-04-15T17:54:01;6.90;;;3.67;;
19161;SDS011;9713;48.140;11.530;2023-04-15T17:57:45;8.40;;;4.30;;
19161;SDS011;9713;48.140;11.530;2023-04-15T18:01:27;8.27;;;4.27;;
19161;SDS011;9713;48.140;11.530;2023-04-15T18:05:10;8.47;;;4.97;;
19161;SDS011;9713;48.140;11.530;2023-04-15T18:08:53;9.23;;;4.87;;
19161;SDS011;9713;48.140;11.530;2023-04-15T18:12:37;7.37;;;3.63;;
19161;SDS011;9713;48.140;11.530;2023-04-15T18:16:20;8.80;;;4.03;;
19161;SDS011;9713;48.140;11.530;2023-04-15T18:20:03;6.13;;;4.23;;
19161;SDS011;9713;48.140;11.530;2023-04-15T18:23:46;9.80;;;4.90;;
19161;SDS011;9713;48.140;11.530;2023-04-15T18:27:29;7.67;;;4.47;;
19161;SDS011;9713;48.140;11.530;2023-04-15T18:31:13;6.77;;;4.40;;
19161;SDS011;9713;48.140;11.530;2023-04-15T18:34:56;7.27;;;4.60;;
19161;SDS011;9713;48.140;11.530;2023-04-15T18:38:39;6.87;;;3.73;;
19161;SDS011;9713;48.140;11.530;2023-04-15T18:42:22;8.20;;;4.17;;
19161;SDS011;9713;48.140;11.530;2023-04-15T18:46:05;7.17;;;4.40;;
19161;SDS011;9713;48.140;11.530;2023-04-15T18:49:53;10.53;;;4.50;;
19161;SDS011;9713;48.140;11.530;2023-04-15T18:53:36;7.90;;;4.13;;
19161;SDS011;9713;48.140;11.530;2023-04-15T18:57:18;7.93;;;4.13;;
19161;SDS011;9713;48.140;11.530;2023-04-15T19:01:06;6.93;;;4.20;;
19161;SDS011;9713;48.140;11.530;2023-04-15T19:04:53;5.87;;;4.10;;
19161;SDS011;9713;48.140;11.530;2023-04-15T19:08:36;8.40;;;4.53;;
19161;SDS011;9713;48.140;11.530;2023-04-15T19:12:18;7.17;;;4.57;;
19161;SDS011;9713;48.140;11.530;2023-04-15T19:16:01;10.37;;;4.67;;
19161;SDS011;9713;48.140;11.530;2023-04-15T19:19:44;7.93;;;5.00;;
19161;SDS011;9713;48.140;11.530;2023-04-15T19:23:28;11.00;;;5.00;;
19161;SDS011;9713;48.140;11.530;2023-04-15T19:27:12;8.30;;;4.67;;
19161;SDS011;9713;48.140;11.530;2023-04-15T19:30:55;7.93;;;4.43;;
19161;SDS011;9713;48.140;11.530;2023-04-15T19:34:38;7.73;;;4.87;;
19161;SDS011;9713;48.140;11.530;2023-04-15T19:38:20;7.73;;;4.37;;
19161;SDS011;9713;48.140;11.530;2023-04-15T19:42:05;7.00;;;4.30;;
19161;SDS011;9713;48.140;11.530;2023-04-15T19:45:47;7.43;;;4.00;;
19161;SDS011;9713;48.140;11.530;2023-04-15T19:49:32;5.87;;;3.87;;
19161;SDS011;9713;48.140;11.530;2023-04-15T19:53:15;5.50;;;3.87;;
19161;SDS011;9713;48.140;11.530;2023-04-15T19:56:57;7.20;;;3.93;;
19161;SDS011;9713;48.140;11.530;2023-04-15T20:00:43;6.20;;;4.00;;
19161;SDS011;9713;48.140;11.530;2023-04-15T20:04:25;6.80;;;4.13;;
19161;SDS011;9713;48.140;11.530;2023-04-15T20:08:08;5.40;;;3.77;;
19161;SDS011;9713;48.140;11.530;2023-04-15T20:11:51;6.13;;;3.97;;
19161;SDS011;9713;48.140;11.530;2023-04-15T20:15:55;7.80;;;3.90;;
19161;SDS011;9713;48.140;11.530;2023-04-15T20:19:38;4.67;;;3.63;;
19161;SDS011;9713;48.140;11.530;2023-04-15T20:23:20;6.10;;;4.10;;
19161;SDS011;9713;48.140;11.530;2023-04-15T20:27:03;6.23;;;4.30;;
19161;SDS011;9713;48.140;11.530;2023-04-15T20:30:46;6.53;;;4.00;;
19161;SDS011;9713;48.140;11.530;2023-04-15T20:34:30;6.13;;;4.17;;
19161;SDS011;9713;48.140;11.530;2023-04-15T20:38:12;4.90;;;3.50;;
19161;SDS011;9713;48.140;11.530;2023-04-15T20:41:56;4.17;;;3.37;;
19161;SDS011;9713;48.140;11.530;2023-04-15T20:45:39;4.13;;;2.93;;
19161;SDS011;9713;48.140;11.530;2023-04-15T20:49:21;5.27;;;3.30;;
19161;SDS011;9713;48.140;11.530;2023-04-15T20:53:05;5.40;;;3.50;;
19161;SDS011;9713;48.140;11.530;2023-04-15T20:56:48;5.57;;;3.70;;
19161;SDS011;9713;48.140;11.530;2023-04-15T21:00:31;6.60;;;3.70;;
19161;SDS011;9713;48.140;11.530;2023-04-15T21:04:13;4.97;;;3.53;;
19161;SDS011;9713;48.140;11.530;2023-04-15T21:07:56;6.23;;;3.77;;
19161;SDS011;9713;48.140;11.530;2023-04-15T21:11:41;5.67;;;3.70;;
19161;SDS011;9713;48.140;11.530;2023-04-15T21:15:41;4.50;;;3.10;;
19161;SDS011;9713;48.140;11.530;2023-04-15T21:19:25;5.17;;;3.57;;
19161;SDS011;9713;48.140;11.530;2023-04-15T21:23:07;4.97;;;3.30;;
19161;SDS011;9713;48.140;11.530;2023-04-15T21:26:54;6.20;;;3.70;;
19161;SDS011;9713;48.140;11.530;2023-04-15T21:30:37;4.90;;;3.30;;
19161;SDS011;9713;48.140;11.530;2023-04-15T21:34:20;4.70;;;3.60;;
19161;SDS011;9713;48.140;11.530;2023-04-15T21:38:03;4.40;;;3.13;;
19161;SDS011;9713;48.140;11.530;2023-04-15T21:41:45;4.70;;;3.57;;
19161;SDS011;9713;48.140;11.530;2023-04-15T21:45:29;6.57;;;3.87;;
19161;SDS011;9713;48.140;11.530;2023-04-15T21:49:12;4.43;;;3.27;;
19161;SDS011;9713;48.140;11.530;2023-04-15T21:52:55;4.80;;;3.53;;
19161;SDS011;9713;48.140;11.530;2023-04-15T21:56:37;4.60;;;3.37;;
19161;SDS011;9713;48.140;11.530;2023-04-15T22:00:20;5.57;;;3.63;;
19161;SDS011;9713;48.140;11.530;2023-04-15T22:04:04;4.03;;;3.07;;
19161;SDS011;9713;48.140;11.530;2023-04-15T22:07:47;5.63;;;3.23;;
19161;SDS011;9713;48.140;11.530;2023-04-15T22:11:30;4.50;;;2.80;;
19161;SDS011;9713;48.140;11.530;2023-04-15T22:15:13;4.13;;;2.80;;
19161;SDS011;9713;48.140;11.530;2023-04-15T22:18:56;4.90;;;3.10;;
19161;SDS011;9713;48.140;11.530;2023-04-15T22:22:40;4.20;;;3.00;;
19161;SDS011;9713;48.140;11.530;2023-04-15T22:26:25;5.77;;;2.50;;
19161;SDS011;9713;48.140;11.530;2023-04-15T22:30:08;3.10;;;2.30;;
19161;SDS011;9713;48.140;11.530;2023-04-15T22:33:51;2.77;;;2.07;;